createdAt,value
2019-04-19T00:00:11.362Z,10.80
2019-04-19T00:01:11.143Z,12.40
2019-04-19T00:02:11.804Z,12.60
2019-04-19T00:03:12.699Z,12.40
2019-04-19T00:04:12.199Z,12.70
2019-04-19T00:05:07.906Z,12.40
2019-04-19T00:06:16.265Z,15.50
2019-04-19T00:07:13.190Z,11.90
2019-04-19T00:08:21.128Z,14.50
2019-04-19T00:09:25.196Z,13.30
2019-04-19T00:10:23.676Z,12.30
2019-04-19T00:11:18.932Z,13.20
2019-04-19T00:12:21.837Z,13.70
2019-04-19T00:13:08.275Z,12.70
2019-04-19T00:14:08.522Z,11.90
2019-04-19T00:15:07.842Z,14.40
2019-04-19T00:16:08.816Z,12.70
2019-04-19T00:17:13.991Z,12.80
2019-04-19T00:18:11.813Z,13.50
2019-04-19T00:19:39.918Z,12.50
2019-04-19T00:20:40.013Z,12.80
2019-04-19T00:21:23.621Z,13.70
2019-04-19T00:22:26.486Z,11.30
2019-04-19T00:23:20.266Z,13.00
2019-04-19T00:24:08.202Z,12.20
2019-04-19T00:25:09.224Z,13.50
2019-04-19T00:26:08.567Z,14.60
2019-04-19T00:27:09.636Z,14.20
2019-04-19T00:28:08.760Z,14.30
2019-04-19T00:29:19.016Z,13.80
2019-04-19T00:30:23.740Z,16.50
2019-04-19T00:31:21.527Z,15.00
2019-04-19T00:32:24.128Z,13.40
2019-04-19T00:33:17.852Z,14.20
2019-04-19T00:34:08.596Z,15.80
2019-04-19T00:35:09.487Z,14.30
2019-04-19T00:36:11.174Z,16.50
2019-04-19T00:37:09.889Z,14.70
2019-04-19T00:38:14.474Z,12.20
2019-04-19T00:39:23.999Z,15.30
2019-04-19T00:40:28.385Z,13.20
2019-04-19T00:41:26.916Z,12.30
2019-04-19T00:42:28.155Z,14.60
2019-04-19T00:43:26.300Z,16.10
2019-04-19T00:44:28.373Z,18.50
2019-04-19T00:45:23.701Z,12.10
2019-04-19T00:46:25.125Z,13.50
2019-04-19T00:47:24.721Z,14.80
2019-04-19T00:49:21.750Z,13.40
2019-04-19T00:50:18.126Z,13.00
2019-04-19T00:51:20.126Z,11.90
2019-04-19T00:52:23.414Z,13.40
2019-04-19T00:53:22.458Z,14.90
2019-04-19T00:54:17.834Z,11.20
2019-04-19T00:55:16.600Z,13.90
2019-04-19T00:56:15.269Z,16.10
2019-04-19T00:57:19.145Z,13.20
2019-04-19T00:58:16.323Z,16.50
2019-04-19T00:59:12.720Z,14.40
2019-04-19T01:00:11.881Z,13.60
2019-04-19T01:01:16.959Z,12.50
2019-04-19T01:02:14.042Z,12.10
2019-04-19T01:03:11.834Z,12.20
2019-04-19T01:04:15.605Z,11.50
2019-04-19T01:05:14.675Z,12.90
2019-04-19T01:06:15.091Z,13.90
2019-04-19T01:07:14.919Z,15.20
2019-04-19T01:08:14.934Z,13.20
2019-04-19T01:09:24.034Z,13.20
2019-04-19T01:10:26.965Z,13.70
2019-04-19T01:11:24.916Z,14.20
2019-04-19T01:12:20.461Z,16.30
2019-04-19T01:13:17.812Z,12.80
2019-04-19T01:14:20.209Z,13.00
2019-04-19T01:15:22.354Z,12.80
2019-04-19T01:16:21.189Z,15.90
2019-04-19T01:17:22.504Z,12.50
2019-04-19T01:18:23.349Z,11.70
2019-04-19T01:19:14.466Z,12.30
2019-04-19T01:20:12.306Z,14.20
2019-04-19T01:21:11.362Z,14.40
2019-04-19T01:22:16.181Z,13.20
2019-04-19T01:23:13.822Z,14.90
2019-04-19T01:24:11.189Z,16.70
2019-04-19T01:25:20.503Z,12.40
2019-04-19T01:26:13.613Z,13.00
2019-04-19T01:27:13.206Z,13.40
2019-04-19T01:28:15.937Z,13.30
2019-04-19T01:29:12.877Z,13.20
2019-04-19T01:30:10.786Z,15.30
2019-04-19T01:31:16.461Z,13.30
2019-04-19T01:32:15.133Z,13.80
2019-04-19T01:33:10.903Z,14.60
2019-04-19T01:34:16.602Z,13.90
2019-04-19T01:35:15.102Z,14.00
2019-04-19T01:36:11.017Z,14.10
2019-04-19T01:37:16.206Z,13.50
2019-04-19T01:38:13.200Z,12.10
2019-04-19T01:39:25.534Z,12.40
2019-04-19T01:40:26.211Z,15.00
2019-04-19T01:41:24.955Z,12.40
2019-04-19T01:42:32.279Z,14.70
2019-04-19T01:43:27.885Z,15.10
2019-04-19T01:44:27.958Z,13.60
2019-04-19T01:45:26.786Z,14.20
2019-04-19T01:46:26.632Z,15.80
2019-04-19T01:47:30.422Z,13.30
2019-04-19T01:48:29.768Z,14.60
2019-04-19T01:49:21.365Z,14.30
2019-04-19T01:50:25.043Z,13.60
2019-04-19T01:51:29.413Z,13.70
2019-04-19T01:52:36.778Z,14.70
2019-04-19T01:53:28.190Z,16.90
2019-04-19T01:54:32.378Z,14.40
2019-04-19T01:55:18.959Z,13.00
2019-04-19T01:56:15.560Z,13.10
2019-04-19T01:57:14.304Z,13.30
2019-04-19T01:58:16.148Z,13.30
2019-04-19T01:59:12.028Z,14.60
2019-04-19T02:00:16.939Z,14.30
2019-04-19T02:01:17.576Z,13.40
2019-04-19T02:02:16.077Z,13.40
2019-04-19T02:03:12.638Z,15.40
2019-04-19T02:04:18.294Z,14.20
2019-04-19T02:05:16.229Z,15.10
2019-04-19T02:06:15.038Z,13.90
2019-04-19T02:07:18.017Z,14.70
2019-04-19T02:08:14.466Z,15.70
2019-04-19T02:09:24.595Z,17.00
2019-04-19T02:10:22.586Z,15.10
2019-04-19T02:11:25.139Z,13.40
2019-04-19T02:12:26.196Z,14.10
2019-04-19T02:13:21.860Z,16.30
2019-04-19T02:14:20.381Z,14.40
2019-04-19T02:15:20.693Z,14.50
2019-04-19T02:16:17.026Z,16.80
2019-04-19T02:17:16.044Z,14.00
2019-04-19T02:18:20.757Z,13.50
2019-04-19T02:19:18.862Z,15.90
2019-04-19T02:20:14.062Z,13.80
2019-04-19T02:21:21.385Z,15.10
2019-04-19T02:22:20.427Z,14.40
2019-04-19T02:23:15.657Z,14.70
2019-04-19T02:24:12.869Z,14.90
2019-04-19T02:25:19.869Z,13.30
2019-04-19T02:26:16.621Z,15.80
2019-04-19T02:27:16.438Z,17.80
2019-04-19T02:28:19.915Z,16.00
2019-04-19T02:29:17.721Z,14.40
2019-04-19T02:30:28.220Z,16.30
2019-04-19T02:31:37.425Z,15.10
2019-04-19T02:32:32.635Z,15.50
2019-04-19T02:33:41.113Z,13.10
2019-04-19T02:34:43.007Z,13.60
2019-04-19T02:35:34.875Z,15.50
2019-04-19T02:36:48.316Z,15.30
2019-04-19T02:37:39.721Z,16.30
2019-04-19T02:38:54.484Z,14.20
2019-04-19T02:40:52.899Z,15.70
2019-04-19T02:41:46.041Z,14.80
2019-04-19T02:44:45.806Z,15.20
2019-04-19T02:45:44.607Z,13.90
2019-04-19T02:47:01.164Z,14.40
2019-04-19T02:48:48.716Z,15.70
2019-04-19T02:49:44.775Z,15.30
2019-04-19T02:51:39.404Z,20.50
2019-04-19T02:52:42.870Z,15.90
2019-04-19T02:53:39.487Z,15.70
2019-04-19T02:54:42.231Z,14.10
2019-04-19T02:55:43.092Z,14.30
2019-04-19T02:56:59.297Z,15.30
2019-04-19T02:58:40.087Z,14.80
2019-04-19T02:59:47.349Z,13.80
2019-04-19T03:01:44.386Z,15.30
2019-04-19T03:02:50.342Z,13.70
2019-04-19T03:03:31.560Z,15.60
2019-04-19T03:04:58.958Z,15.80
2019-04-19T03:05:37.736Z,16.00
2019-04-19T03:06:26.023Z,15.40
2019-04-19T03:07:15.834Z,14.50
2019-04-19T03:08:14.586Z,15.90
2019-04-19T03:09:15.489Z,15.30
2019-04-19T03:10:19.376Z,14.50
2019-04-19T03:11:33.791Z,14.60
2019-04-19T03:12:32.880Z,18.70
2019-04-19T03:13:31.070Z,14.20
2019-04-19T03:14:35.153Z,16.30
2019-04-19T03:15:36.409Z,17.00
2019-04-19T03:16:37.102Z,19.80
2019-04-19T03:17:34.628Z,15.50
2019-04-19T03:18:38.786Z,14.50
2019-04-19T03:19:25.016Z,16.30
2019-04-19T03:20:32.382Z,16.00
2019-04-19T03:21:33.003Z,15.40
2019-04-19T03:22:28.405Z,15.80
2019-04-19T03:23:26.308Z,16.90
2019-04-19T03:24:30.172Z,15.80
2019-04-19T03:25:27.807Z,18.00
2019-04-19T03:26:32.674Z,18.80
2019-04-19T03:27:22.994Z,16.50
2019-04-19T03:28:26.146Z,16.20
2019-04-19T03:29:22.828Z,18.50
2019-04-19T03:30:38.181Z,15.70
2019-04-19T03:31:51.585Z,14.00
2019-04-19T03:33:41.960Z,16.00
2019-04-19T03:34:50.302Z,16.10
2019-04-19T03:35:41.334Z,16.80
2019-04-19T03:36:35.526Z,14.70
2019-04-19T03:37:36.520Z,15.90
2019-04-19T03:38:35.041Z,16.20
2019-04-19T03:39:38.768Z,17.00
2019-04-19T03:40:36.077Z,16.10
2019-04-19T03:41:51.088Z,17.30
2019-04-19T03:42:42.074Z,16.50
2019-04-19T03:43:35.296Z,17.80
2019-04-19T03:44:33.928Z,16.20
2019-04-19T03:45:33.542Z,17.80
2019-04-19T03:46:40.502Z,18.20
2019-04-19T03:47:42.495Z,15.50
2019-04-19T03:48:47.900Z,16.00
2019-04-19T03:49:34.740Z,17.00
2019-04-19T03:50:31.763Z,15.80
2019-04-19T03:51:34.322Z,15.40
2019-04-19T03:52:35.745Z,19.00
2019-04-19T03:53:47.746Z,17.40
2019-04-19T03:54:32.807Z,15.50
2019-04-19T03:55:39.388Z,16.80
2019-04-19T03:56:33.185Z,15.50
2019-04-19T03:57:29.706Z,16.40
2019-04-19T03:58:20.070Z,16.10
2019-04-19T03:59:16.496Z,16.70
2019-04-19T04:00:17.404Z,18.20
2019-04-19T04:01:17.093Z,17.20
2019-04-19T04:02:24.524Z,17.20
2019-04-19T04:03:24.325Z,18.40
2019-04-19T04:04:22.186Z,16.90
2019-04-19T04:05:18.021Z,16.80
2019-04-19T04:06:22.014Z,18.10
2019-04-19T04:07:21.999Z,17.20
2019-04-19T04:08:20.872Z,16.50
2019-04-19T04:09:16.857Z,16.00
2019-04-19T04:10:24.921Z,15.80
2019-04-19T04:11:20.273Z,16.10
2019-04-19T04:12:30.062Z,18.00
2019-04-19T04:13:29.692Z,16.70
2019-04-19T04:14:26.784Z,18.60
2019-04-19T04:15:25.846Z,17.40
2019-04-19T04:16:25.114Z,18.70
2019-04-19T04:17:18.464Z,16.30
2019-04-19T04:18:17.565Z,17.60
2019-04-19T04:19:18.518Z,19.20
2019-04-19T04:20:17.754Z,16.10
2019-04-19T04:21:20.301Z,16.40
2019-04-19T04:22:23.866Z,19.70
2019-04-19T04:23:25.363Z,16.90
2019-04-19T04:24:24.771Z,17.70
2019-04-19T04:25:22.596Z,16.70
2019-04-19T04:26:23.929Z,15.70
2019-04-19T04:27:32.914Z,17.10
2019-04-19T04:28:34.038Z,17.50
2019-04-19T04:29:27.396Z,18.00
2019-04-19T04:30:27.920Z,15.50
2019-04-19T04:31:27.450Z,16.20
2019-04-19T04:32:28.102Z,17.70
2019-04-19T04:33:33.677Z,15.80
2019-04-19T04:34:33.063Z,18.20
2019-04-19T04:35:30.313Z,16.00
2019-04-19T04:36:38.553Z,16.70
2019-04-19T04:37:33.266Z,15.80
2019-04-19T04:38:25.824Z,18.20
2019-04-19T04:39:17.987Z,15.70
2019-04-19T04:40:18.821Z,16.50
2019-04-19T04:41:23.628Z,16.10
2019-04-19T04:42:26.584Z,18.30
2019-04-19T04:43:31.391Z,16.30
2019-04-19T04:44:33.234Z,16.20
2019-04-19T04:45:34.287Z,19.90
2019-04-19T04:46:38.816Z,17.60
2019-04-19T04:47:36.882Z,18.30
2019-04-19T04:48:38.910Z,16.30
2019-04-19T04:49:41.358Z,17.30
2019-04-19T04:50:45.437Z,15.90
2019-04-19T04:51:34.771Z,16.40
2019-04-19T04:52:25.460Z,18.50
2019-04-19T04:53:19.369Z,19.10
2019-04-19T04:54:18.664Z,16.40
2019-04-19T04:55:18.586Z,18.30
2019-04-19T04:56:19.418Z,19.60
2019-04-19T04:57:28.370Z,16.80
2019-04-19T04:58:25.106Z,18.60
2019-04-19T04:59:22.286Z,17.20
2019-04-19T05:00:22.257Z,15.30
2019-04-19T05:01:29.091Z,17.20
2019-04-19T05:02:31.370Z,16.30
2019-04-19T05:03:38.987Z,16.80
2019-04-19T05:04:35.921Z,18.60
2019-04-19T05:05:36.064Z,16.80
2019-04-19T05:06:35.247Z,18.50
2019-04-19T05:07:39.125Z,16.70
2019-04-19T05:08:35.342Z,17.60
2019-04-19T05:09:41.614Z,18.60
2019-04-19T05:10:31.590Z,18.00
2019-04-19T05:11:33.945Z,16.20
2019-04-19T05:12:59.086Z,17.80
2019-04-19T05:13:38.901Z,15.80
2019-04-19T05:14:38.884Z,14.00
2019-04-19T05:15:40.273Z,16.00
2019-04-19T05:16:46.704Z,16.30
2019-04-19T05:17:46.031Z,18.60
2019-04-19T05:18:36.432Z,16.70
2019-04-19T05:19:45.153Z,16.50
2019-04-19T05:20:35.711Z,18.80
2019-04-19T05:21:37.218Z,17.90
2019-04-19T05:22:32.667Z,16.20
2019-04-19T05:23:43.144Z,15.80
2019-04-19T05:24:46.215Z,16.80
2019-04-19T05:25:41.357Z,14.80
2019-04-19T05:27:40.414Z,15.30
2019-04-19T05:28:37.385Z,17.80
2019-04-19T05:29:29.791Z,15.10
2019-04-19T05:30:33.121Z,18.10
2019-04-19T05:31:28.919Z,16.10
2019-04-19T05:32:28.053Z,16.90
2019-04-19T05:33:34.211Z,16.90
2019-04-19T05:34:36.341Z,16.30
2019-04-19T05:35:38.140Z,18.10
2019-04-19T05:36:38.723Z,16.40
2019-04-19T05:37:38.443Z,16.80
2019-04-19T05:38:42.659Z,15.10
2019-04-19T05:39:41.321Z,14.40
2019-04-19T05:40:35.456Z,14.20
2019-04-19T05:41:35.167Z,16.10
2019-04-19T05:42:41.686Z,14.40
2019-04-19T05:44:02.030Z,15.90
2019-04-19T05:44:41.274Z,15.00
2019-04-19T05:45:48.544Z,15.30
2019-04-19T05:46:41.875Z,13.70
2019-04-19T05:47:33.645Z,14.60
2019-04-19T05:48:34.894Z,14.90
2019-04-19T05:49:39.077Z,14.50
2019-04-19T05:50:39.548Z,16.30
2019-04-19T05:51:43.655Z,15.60
2019-04-19T05:52:39.581Z,16.30
2019-04-19T05:53:30.753Z,16.50
2019-04-19T05:54:22.108Z,14.80
2019-04-19T05:55:22.193Z,15.60
2019-04-19T05:56:22.119Z,17.70
2019-04-19T05:57:43.939Z,16.00
2019-04-19T05:58:31.794Z,21.30
2019-04-19T05:59:31.668Z,17.10
2019-04-19T06:00:37.850Z,15.00
2019-04-19T06:01:42.907Z,15.50
2019-04-19T06:02:28.475Z,16.30
2019-04-19T06:03:32.913Z,15.60
2019-04-19T06:04:43.673Z,15.40
2019-04-19T06:05:55.565Z,17.10
2019-04-19T06:06:45.454Z,15.50
2019-04-19T06:07:35.669Z,13.90
2019-04-19T06:08:27.878Z,15.00
2019-04-19T06:09:21.889Z,15.30
2019-04-19T06:10:21.433Z,15.50
2019-04-19T06:11:27.013Z,17.20
2019-04-19T06:12:26.841Z,13.30
2019-04-19T06:13:21.951Z,17.10
2019-04-19T06:14:45.086Z,13.40
2019-04-19T06:15:43.115Z,15.50
2019-04-19T06:16:39.556Z,15.50
2019-04-19T06:17:41.036Z,13.40
2019-04-19T06:18:36.143Z,14.90
2019-04-19T06:19:35.309Z,15.50
2019-04-19T06:20:39.708Z,15.70
2019-04-19T06:21:39.234Z,14.20
2019-04-19T06:22:44.468Z,15.10
2019-04-19T06:23:44.187Z,14.80
2019-04-19T06:24:43.141Z,13.80
2019-04-19T06:25:52.522Z,14.80
2019-04-19T06:27:53.188Z,14.70
2019-04-19T06:28:51.626Z,12.10
2019-04-19T06:29:50.519Z,12.90
2019-04-19T06:30:41.016Z,14.90
2019-04-19T06:31:48.748Z,12.60
2019-04-19T06:32:45.147Z,12.80
2019-04-19T06:33:42.294Z,12.40
2019-04-19T06:34:42.587Z,14.30
2019-04-19T06:35:33.068Z,14.00
2019-04-19T06:36:23.007Z,11.60
2019-04-19T06:37:27.577Z,14.40
2019-04-19T06:38:22.655Z,14.10
2019-04-19T06:39:22.665Z,13.20
2019-04-19T06:40:27.827Z,15.60
2019-04-19T06:41:25.464Z,16.90
2019-04-19T06:42:34.145Z,12.60
2019-04-19T06:43:35.984Z,12.40
2019-04-19T06:44:47.006Z,13.80
2019-04-19T06:45:43.178Z,12.70
2019-04-19T06:46:35.905Z,14.30
2019-04-19T06:47:30.303Z,12.70
2019-04-19T06:48:26.963Z,12.10
2019-04-19T06:49:26.714Z,12.40
2019-04-19T06:50:30.093Z,12.70
2019-04-19T06:51:31.683Z,12.30
2019-04-19T06:52:29.122Z,13.90
2019-04-19T06:53:23.124Z,11.70
2019-04-19T06:54:28.532Z,14.40
2019-04-19T06:55:28.539Z,11.70
2019-04-19T06:56:30.309Z,12.70
2019-04-19T06:57:30.080Z,12.50
2019-04-19T06:58:27.620Z,11.90
2019-04-19T06:59:38.143Z,11.90
2019-04-19T07:00:40.222Z,11.60
2019-04-19T07:01:33.369Z,12.40
2019-04-19T07:02:24.184Z,11.30
2019-04-19T07:03:23.702Z,11.10
2019-04-19T07:04:24.809Z,11.00
2019-04-19T07:05:39.428Z,10.30
2019-04-19T07:06:39.428Z,12.40
2019-04-19T07:07:43.957Z,14.20
2019-04-19T07:09:02.713Z,12.50
2019-04-19T07:09:53.453Z,11.80
2019-04-19T07:10:54.673Z,13.70
2019-04-19T07:11:48.194Z,12.00
2019-04-19T07:12:46.882Z,12.70
2019-04-19T07:13:35.688Z,12.20
2019-04-19T07:14:27.837Z,12.10
2019-04-19T07:15:49.718Z,11.40
2019-04-19T07:16:44.281Z,11.70
2019-04-19T07:17:39.151Z,11.80
2019-04-19T07:18:37.119Z,10.60
2019-04-19T07:19:46.916Z,12.30
2019-04-19T07:20:40.073Z,11.20
2019-04-19T07:21:42.734Z,11.80
2019-04-19T07:22:44.629Z,14.20
2019-04-19T07:23:44.533Z,13.90
2019-04-19T07:24:47.406Z,12.50
2019-04-19T07:25:48.895Z,11.20
2019-04-19T07:26:44.851Z,10.90
2019-04-19T07:27:36.697Z,12.50
2019-04-19T07:28:30.161Z,9.40
2019-04-19T07:29:25.487Z,9.60
2019-04-19T07:30:24.730Z,11.20
2019-04-19T07:31:25.826Z,10.50
2019-04-19T07:32:34.675Z,16.50
2019-04-19T07:33:37.402Z,12.10
2019-04-19T07:34:43.816Z,19.10
2019-04-19T07:35:47.269Z,20.60
2019-04-19T07:36:48.121Z,19.20
2019-04-19T07:37:41.831Z,19.60
2019-04-19T07:38:46.194Z,15.90
2019-04-19T07:39:48.265Z,13.30
2019-04-19T07:41:48.814Z,12.50
2019-04-19T07:42:38.791Z,15.70
2019-04-19T07:43:39.341Z,9.00
2019-04-19T07:44:35.729Z,9.20
2019-04-19T07:45:38.210Z,9.70
2019-04-19T07:46:48.938Z,8.60
2019-04-19T07:47:34.396Z,8.20
2019-04-19T07:48:26.219Z,8.10
2019-04-19T07:49:25.445Z,8.00
2019-04-19T07:50:29.839Z,9.10
2019-04-19T07:51:31.887Z,8.70
2019-04-19T07:52:35.564Z,8.10
2019-04-19T07:53:32.361Z,6.90
2019-04-19T07:54:28.889Z,7.60
2019-04-19T07:55:26.755Z,9.70
2019-04-19T07:56:39.126Z,9.10
2019-04-19T07:58:12.239Z,7.90
2019-04-19T07:58:52.142Z,7.90
2019-04-19T07:59:47.385Z,6.90
2019-04-19T08:00:54.119Z,8.10
2019-04-19T08:02:01.555Z,9.20
2019-04-19T08:05:13.978Z,8.20
2019-04-19T08:06:52.492Z,8.20
2019-04-19T08:12:14.970Z,7.60
2019-04-19T08:12:53.743Z,7.60
2019-04-19T08:14:00.112Z,7.30
2019-04-19T08:17:58.864Z,9.20
2019-04-19T08:27:35.493Z,6.40
2019-04-19T08:28:37.557Z,7.60
2019-04-19T08:29:38.448Z,8.60
2019-04-19T08:30:35.884Z,9.30
2019-04-19T08:31:27.575Z,6.90
2019-04-19T08:32:28.139Z,8.90
2019-04-19T08:33:27.600Z,8.20
2019-04-19T08:34:29.330Z,9.30
2019-04-19T08:35:27.789Z,7.20
2019-04-19T08:36:33.126Z,8.40
2019-04-19T08:37:33.998Z,7.10
2019-04-19T08:38:29.573Z,7.20
2019-04-19T08:39:46.488Z,7.40
2019-04-19T08:40:44.090Z,7.60
2019-04-19T08:41:46.854Z,7.20
2019-04-19T08:42:47.928Z,7.10
2019-04-19T08:43:49.221Z,6.60
2019-04-19T08:44:40.920Z,7.30
2019-04-19T08:45:30.011Z,7.60
2019-04-19T08:46:28.233Z,8.10
2019-04-19T08:47:36.859Z,7.90
2019-04-19T08:48:38.353Z,7.10
2019-04-19T08:49:33.623Z,7.70
2019-04-19T08:50:28.695Z,6.60
2019-04-19T08:51:32.997Z,7.50
2019-04-19T08:52:31.957Z,6.80
2019-04-19T08:53:45.089Z,6.40
2019-04-19T08:54:48.978Z,7.20
2019-04-19T08:55:46.188Z,7.80
2019-04-19T08:56:39.060Z,6.50
2019-04-19T08:57:29.481Z,6.20
2019-04-19T08:58:47.791Z,8.00
2019-04-19T08:59:50.879Z,6.90
2019-04-19T09:01:50.647Z,6.50
2019-04-19T09:02:45.556Z,7.10
2019-04-19T09:03:52.936Z,6.20
2019-04-19T09:04:46.790Z,6.10
2019-04-19T09:05:47.931Z,7.60
2019-04-19T09:07:52.504Z,6.00
2019-04-19T09:08:47.329Z,6.60
2019-04-19T09:09:52.279Z,5.90
2019-04-19T09:10:49.213Z,7.10
2019-04-19T09:11:48.004Z,7.30
2019-04-19T09:12:55.642Z,6.50
2019-04-19T09:13:51.024Z,5.80
2019-04-19T09:14:52.822Z,7.60
2019-04-19T09:15:46.057Z,7.00
2019-04-19T09:16:55.882Z,7.30
2019-04-19T09:18:15.779Z,6.70
2019-04-19T09:18:55.810Z,6.40
2019-04-19T09:20:52.223Z,8.00
2019-04-19T09:21:41.763Z,6.90
2019-04-19T09:22:45.120Z,6.70
2019-04-19T09:23:40.357Z,7.00
2019-04-19T09:24:42.841Z,5.90
2019-04-19T09:25:42.133Z,5.80
2019-04-19T09:26:44.742Z,7.40
2019-04-19T09:27:48.889Z,6.60
2019-04-19T09:28:50.855Z,7.50
2019-04-19T09:29:51.697Z,5.50
2019-04-19T09:30:49.865Z,6.30
2019-04-19T09:31:43.958Z,5.60
2019-04-19T09:32:35.264Z,6.50
2019-04-19T09:33:35.529Z,6.20
2019-04-19T09:34:31.986Z,6.50
2019-04-19T09:35:31.055Z,5.60
2019-04-19T09:36:38.033Z,6.10
2019-04-19T09:37:46.650Z,7.60
2019-04-19T09:38:49.266Z,5.50
2019-04-19T09:39:41.355Z,6.00
2019-04-19T09:40:39.263Z,6.10
2019-04-19T09:41:38.834Z,6.10
2019-04-19T09:42:44.647Z,6.10
2019-04-19T09:43:42.485Z,5.50
2019-04-19T09:44:39.401Z,6.70
2019-04-19T09:45:31.797Z,5.00
2019-04-19T09:46:31.760Z,5.40
2019-04-19T09:47:31.300Z,6.10
2019-04-19T09:48:49.511Z,4.80
2019-04-19T09:49:46.262Z,7.00
2019-04-19T09:50:44.250Z,5.80
2019-04-19T09:51:46.849Z,6.00
2019-04-19T09:52:55.575Z,5.60
2019-04-19T09:53:54.408Z,6.50
2019-04-19T09:54:50.140Z,5.80
2019-04-19T09:55:52.081Z,5.40
2019-04-19T09:56:46.814Z,6.10
2019-04-19T09:57:49.802Z,5.00
2019-04-19T09:58:49.087Z,5.10
2019-04-19T09:59:35.812Z,6.20
2019-04-19T10:00:32.373Z,5.50
2019-04-19T10:01:37.347Z,5.30
2019-04-19T10:02:39.252Z,5.00
2019-04-19T10:03:41.210Z,6.10
2019-04-19T10:04:31.655Z,5.90
2019-04-19T10:05:32.703Z,5.50
2019-04-19T10:06:31.466Z,7.20
2019-04-19T10:07:32.620Z,5.80
2019-04-19T10:08:32.166Z,5.30
2019-04-19T10:09:31.611Z,5.80
2019-04-19T10:10:31.664Z,5.10
2019-04-19T10:11:32.825Z,7.10
2019-04-19T10:12:31.734Z,5.40
2019-04-19T10:13:32.130Z,5.20
2019-04-19T10:14:33.176Z,5.40
2019-04-19T10:15:32.189Z,5.50
2019-04-19T10:16:32.648Z,6.60
2019-04-19T10:17:31.976Z,4.70
2019-04-19T10:18:44.273Z,5.70
2019-04-19T10:19:32.792Z,5.00
2019-04-19T10:20:33.068Z,6.80
2019-04-19T10:21:35.352Z,5.20
2019-04-19T10:22:32.854Z,4.70
2019-04-19T10:23:32.232Z,5.40
2019-04-19T10:24:33.370Z,5.70
2019-04-19T10:25:33.256Z,6.70
2019-04-19T10:26:32.378Z,5.10
2019-04-19T10:27:33.368Z,5.70
2019-04-19T10:28:32.471Z,5.90
2019-04-19T10:29:38.060Z,7.10
2019-04-19T10:30:32.547Z,5.50
2019-04-19T10:31:33.665Z,6.30
2019-04-19T10:32:32.998Z,6.40
2019-04-19T10:33:38.908Z,6.40
2019-04-19T10:34:32.749Z,7.80
2019-04-19T10:35:33.615Z,5.80
2019-04-19T10:36:33.113Z,6.60
2019-04-19T10:37:33.628Z,5.80
2019-04-19T10:38:33.908Z,6.10
2019-04-19T10:39:34.046Z,5.70
2019-04-19T10:40:33.520Z,6.40
2019-04-19T10:41:34.164Z,5.70
2019-04-19T10:42:33.526Z,5.70
2019-04-19T10:43:33.141Z,6.50
2019-04-19T10:44:34.088Z,5.90
2019-04-19T10:45:34.175Z,6.40
2019-04-19T10:46:34.153Z,7.30
2019-04-19T10:47:33.633Z,6.90
2019-04-19T10:48:34.716Z,6.30
2019-04-19T10:49:43.845Z,5.70
2019-04-19T10:50:41.900Z,6.60
2019-04-19T10:51:33.502Z,6.70
2019-04-19T10:52:33.550Z,6.10
2019-04-19T10:53:34.601Z,6.50
2019-04-19T10:54:33.680Z,6.30
2019-04-19T10:55:34.115Z,6.60
2019-04-19T10:56:34.242Z,5.70
2019-04-19T10:57:33.777Z,6.00
2019-04-19T10:58:34.465Z,6.50
2019-04-19T10:59:34.410Z,7.70
2019-04-19T11:00:33.913Z,6.90
2019-04-19T11:01:33.965Z,6.70
2019-04-19T11:02:34.678Z,7.70
2019-04-19T11:03:34.822Z,8.70
2019-04-19T11:04:35.165Z,6.50
2019-04-19T11:05:34.530Z,6.10
2019-04-19T11:06:35.493Z,6.90
2019-04-19T11:07:35.217Z,7.70
2019-04-19T11:08:34.279Z,7.10
2019-04-19T11:09:35.449Z,6.10
2019-04-19T11:10:35.604Z,6.80
2019-04-19T11:11:34.414Z,6.80
2019-04-19T11:12:34.468Z,8.60
2019-04-19T11:13:34.515Z,6.30
2019-04-19T11:14:34.593Z,6.10
2019-04-19T11:15:34.601Z,6.80
2019-04-19T11:16:35.369Z,6.20
2019-04-19T11:17:35.855Z,7.30
2019-04-19T11:18:35.294Z,7.90
2019-04-19T11:19:49.741Z,6.90
2019-04-19T11:20:43.152Z,7.20
2019-04-19T11:21:35.818Z,6.80
2019-04-19T11:22:35.505Z,6.80
2019-04-19T11:23:35.737Z,7.00
2019-04-19T11:24:36.059Z,6.10
2019-04-19T11:25:35.796Z,7.50
2019-04-19T11:26:35.104Z,6.10
2019-04-19T11:27:35.326Z,7.40
2019-04-19T11:28:35.205Z,6.60
2019-04-19T11:29:36.539Z,8.50
2019-04-19T11:30:35.288Z,7.20
2019-04-19T11:31:36.085Z,7.60
2019-04-19T11:32:35.797Z,7.50
2019-04-19T11:33:35.429Z,6.50
2019-04-19T11:34:35.566Z,8.10
2019-04-19T11:35:35.524Z,9.00
2019-04-19T11:36:35.740Z,7.10
2019-04-19T11:37:35.613Z,8.60
2019-04-19T11:38:36.716Z,11.70
2019-04-19T11:39:36.883Z,12.10
2019-04-19T11:40:35.745Z,8.60
2019-04-19T11:41:36.930Z,8.20
2019-04-19T11:42:37.181Z,11.50
2019-04-19T11:43:35.882Z,10.00
2019-04-19T11:44:36.041Z,8.50
2019-04-19T11:45:35.983Z,12.80
2019-04-19T11:46:36.118Z,8.10
2019-04-19T11:47:37.396Z,7.50
2019-04-19T11:48:37.470Z,9.00
2019-04-19T11:49:40.224Z,10.70
2019-04-19T11:50:36.204Z,8.50
2019-04-19T11:51:36.266Z,8.30
2019-04-19T11:52:37.625Z,9.40
2019-04-19T11:53:36.624Z,14.20
2019-04-19T11:54:36.693Z,15.80
2019-04-19T11:55:36.439Z,12.30
2019-04-19T11:56:47.168Z,10.00
2019-04-19T11:57:36.611Z,8.70
2019-04-19T11:58:36.574Z,8.50
2019-04-19T11:59:42.479Z,7.30
2019-04-19T12:00:37.914Z,7.90
2019-04-19T12:01:37.439Z,7.10
2019-04-19T12:02:37.871Z,6.90
2019-04-19T12:03:39.087Z,8.10
2019-04-19T12:04:36.860Z,7.30
2019-04-19T12:05:37.898Z,6.90
2019-04-19T12:06:36.941Z,6.30
2019-04-19T12:07:37.008Z,6.80
2019-04-19T12:08:39.630Z,6.80
2019-04-19T12:09:37.087Z,8.10
2019-04-19T12:10:37.177Z,8.30
2019-04-19T12:11:38.044Z,9.60
2019-04-19T12:12:37.388Z,8.00
2019-04-19T12:13:39.214Z,6.90
2019-04-19T12:14:37.642Z,7.60
2019-04-19T12:15:37.907Z,7.50
2019-04-19T12:16:37.404Z,7.70
2019-04-19T12:17:37.452Z,8.80
2019-04-19T12:18:40.105Z,7.30
2019-04-19T12:19:48.257Z,7.80
2019-04-19T12:20:37.594Z,6.70
2019-04-19T12:21:39.050Z,7.00
2019-04-19T12:22:37.953Z,6.90
2019-04-19T12:23:38.949Z,7.20
2019-04-19T12:24:38.443Z,6.80
2019-04-19T12:25:37.824Z,7.70
2019-04-19T12:26:37.870Z,10.50
2019-04-19T12:27:37.913Z,6.90
2019-04-19T12:28:37.960Z,7.90
2019-04-19T12:29:44.261Z,7.90
2019-04-19T12:30:44.348Z,7.70
2019-04-19T12:31:39.151Z,8.00
2019-04-19T12:32:39.367Z,7.20
2019-04-19T12:33:39.473Z,8.30
2019-04-19T12:34:38.245Z,8.00
2019-04-19T12:35:39.105Z,6.90
2019-04-19T12:36:39.324Z,6.20
2019-04-19T12:37:38.378Z,7.30
2019-04-19T12:38:38.421Z,6.90
2019-04-19T12:39:38.972Z,9.00
2019-04-19T12:40:38.516Z,7.40
2019-04-19T12:41:39.741Z,7.90
2019-04-19T12:42:38.616Z,6.80
2019-04-19T12:43:38.654Z,7.30
2019-04-19T12:44:39.378Z,8.80
2019-04-19T12:45:40.049Z,8.60
2019-04-19T12:46:39.084Z,8.10
2019-04-19T12:47:38.839Z,7.50
2019-04-19T12:48:39.631Z,6.30
2019-04-19T12:49:51.024Z,6.80
2019-04-19T12:50:40.423Z,6.80
2019-04-19T12:51:39.742Z,7.40
2019-04-19T12:52:40.070Z,7.20
2019-04-19T12:53:39.292Z,7.20
2019-04-19T12:54:39.320Z,7.60
2019-04-19T12:55:39.930Z,6.70
2019-04-19T12:56:40.229Z,7.00
2019-04-19T12:57:39.347Z,7.20
2019-04-19T12:58:39.829Z,6.40
2019-04-19T12:59:40.071Z,7.20
2019-04-19T13:00:39.443Z,6.40
2019-04-19T13:01:39.811Z,6.00
2019-04-19T13:02:39.961Z,7.00
2019-04-19T13:03:39.732Z,6.40
2019-04-19T13:04:40.207Z,6.40
2019-04-19T13:05:39.687Z,6.70
2019-04-19T13:06:39.973Z,6.40
2019-04-19T13:07:41.005Z,7.70
2019-04-19T13:08:41.116Z,7.30
2019-04-19T13:09:41.155Z,6.70
2019-04-19T13:10:40.778Z,7.60
2019-04-19T13:11:41.051Z,6.60
2019-04-19T13:12:41.881Z,7.60
2019-04-19T13:13:40.052Z,8.70
2019-04-19T13:14:40.103Z,7.70
2019-04-19T13:15:40.585Z,6.70
2019-04-19T13:16:40.286Z,7.10
2019-04-19T13:17:40.279Z,7.70
2019-04-19T13:18:40.356Z,8.30
2019-04-19T13:19:40.805Z,7.60
2019-04-19T13:20:40.499Z,6.90
2019-04-19T13:21:40.585Z,6.80
2019-04-19T13:22:40.754Z,7.70
2019-04-19T13:23:40.514Z,7.20
2019-04-19T13:24:40.585Z,6.40
2019-04-19T13:25:41.638Z,7.10
2019-04-19T13:26:41.199Z,6.60
2019-04-19T13:27:47.413Z,7.50
2019-04-19T13:28:41.634Z,6.60
2019-04-19T13:29:41.536Z,6.50
2019-04-19T13:30:47.017Z,6.20
2019-04-19T13:31:40.998Z,6.30
2019-04-19T13:32:41.858Z,5.90
2019-04-19T13:33:42.086Z,6.30
2019-04-19T13:34:41.231Z,6.60
2019-04-19T13:35:41.322Z,6.10
2019-04-19T13:36:41.122Z,6.30
2019-04-19T13:37:41.201Z,5.70